sensor_id;sensor_type;location;lat;lon;timestamp;temperature;humidity
1812;DHT22;904;47.814;11.134;2023-08-24T00:02:01;24.80;88.00
1812;DHT22;904;47.814;11.134;2023-08-24T00:04:29;24.80;88.30
1812;DHT22;904;47.814;11.134;2023-08-24T00:06:57;24.80;89.10
1812;DHT22;904;47.814;11.134;2023-08-24T00:09:24;24.80;88.30
1812;DHT22;904;47.814;11.134;2023-08-24T00:11:52;24.80;88.20
1812;DHT22;904;47.814;11.134;2023-08-24T00:14:19;24.70;88.10
1812;DHT22;904;47.814;11.134;2023-08-24T00:16:46;24.70;88.30
1812;DHT22;904;47.814;11.134;2023-08-24T00:19:13;24.60;88.20
1812;DHT22;904;47.814;11.134;2023-08-24T00:21:41;24.60;88.30
1812;DHT22;904;47.814;11.134;2023-08-24T00:24:08;24.60;88.40
1812;DHT22;904;47.814;11.134;2023-08-24T00:26:37;24.50;88.70
1812;DHT22;904;47.814;11.134;2023-08-24T00:29:09;24.50;88.80
1812;DHT22;904;47.814;11.134;2023-08-24T00:31:36;24.50;89.20
1812;DHT22;904;47.814;11.134;2023-08-24T00:34:04;24.40;89.50
1812;DHT22;904;47.814;11.134;2023-08-24T00:36:32;24.40;89.50
1812;DHT22;904;47.814;11.134;2023-08-24T00:39:01;24.30;89.10
1812;DHT22;904;47.814;11.134;2023-08-24T00:41:28;24.30;89.50
1812;DHT22;904;47.814;11.134;2023-08-24T00:43:55;24.30;89.60
1812;DHT22;904;47.814;11.134;2023-08-24T00:46:23;24.30;89.90
1812;DHT22;904;47.814;11.134;2023-08-24T00:48:53;24.20;89.90
1812;DHT22;904;47.814;11.134;2023-08-24T00:51:22;24.20;90.00
1812;DHT22;904;47.814;11.134;2023-08-24T00:53:50;24.20;90.00
1812;DHT22;904;47.814;11.134;2023-08-24T00:56:24;24.20;90.10
1812;DHT22;904;47.814;11.134;2023-08-24T00:58:51;24.10;90.30
1812;DHT22;904;47.814;11.134;2023-08-24T01:01:19;24.10;90.20
1812;DHT22;904;47.814;11.134;2023-08-24T01:03:46;24.00;90.30
1812;DHT22;904;47.814;11.134;2023-08-24T01:06:13;24.00;90.40
1812;DHT22;904;47.814;11.134;2023-08-24T01:08:40;23.90;90.60
1812;DHT22;904;47.814;11.134;2023-08-24T01:11:11;23.90;90.60
1812;DHT22;904;47.814;11.134;2023-08-24T01:13:54;23.80;90.80
1812;DHT22;904;47.814;11.134;2023-08-24T01:16:28;23.70;91.00
1812;DHT22;904;47.814;11.134;2023-08-24T01:18:57;23.70;90.90
1812;DHT22;904;47.814;11.134;2023-08-24T01:21:25;23.70;90.80
1812;DHT22;904;47.814;11.134;2023-08-24T01:24:00;23.70;90.90
1812;DHT22;904;47.814;11.134;2023-08-24T01:26:31;23.70;90.90
1812;DHT22;904;47.814;11.134;2023-08-24T01:28:59;23.80;91.00
1812;DHT22;904;47.814;11.134;2023-08-24T01:31:28;23.70;91.00
1812;DHT22;904;47.814;11.134;2023-08-24T01:33:55;23.80;90.90
1812;DHT22;904;47.814;11.134;2023-08-24T01:36:22;23.70;90.80
1812;DHT22;904;47.814;11.134;2023-08-24T01:38:57;23.70;90.90
1812;DHT22;904;47.814;11.134;2023-08-24T01:41:28;23.70;91.10
1812;DHT22;904;47.814;11.134;2023-08-24T01:44:02;23.60;91.10
1812;DHT22;904;47.814;11.134;2023-08-24T01:46:33;23.60;91.00
1812;DHT22;904;47.814;11.134;2023-08-24T01:49:01;23.60;90.90
1812;DHT22;904;47.814;11.134;2023-08-24T01:51:30;23.50;90.80
1812;DHT22;904;47.814;11.134;2023-08-24T01:53:58;23.50;90.70
1812;DHT22;904;47.814;11.134;2023-08-24T01:56:25;23.50;91.00
1812;DHT22;904;47.814;11.134;2023-08-24T01:58:54;23.50;91.00
1812;DHT22;904;47.814;11.134;2023-08-24T02:01:24;23.50;91.00
1812;DHT22;904;47.814;11.134;2023-08-24T02:03:51;23.50;91.00
1812;DHT22;904;47.814;11.134;2023-08-24T02:06:18;23.50;91.00
1812;DHT22;904;47.814;11.134;2023-08-24T02:08:48;23.40;91.20
1812;DHT22;904;47.814;11.134;2023-08-24T02:11:15;23.50;91.20
1812;DHT22;904;47.814;11.134;2023-08-24T02:13:42;23.50;91.20
1812;DHT22;904;47.814;11.134;2023-08-24T02:16:09;23.40;91.30
1812;DHT22;904;47.814;11.134;2023-08-24T02:18:38;23.30;91.60
1812;DHT22;904;47.814;11.134;2023-08-24T02:21:08;23.30;91.50
1812;DHT22;904;47.814;11.134;2023-08-24T02:23:37;23.30;91.40
1812;DHT22;904;47.814;11.134;2023-08-24T02:26:04;23.30;91.20
1812;DHT22;904;47.814;11.134;2023-08-24T02:28:33;23.30;91.10
1812;DHT22;904;47.814;11.134;2023-08-24T02:31:00;23.30;91.20
1812;DHT22;904;47.814;11.134;2023-08-24T02:33:28;23.30;91.20
1812;DHT22;904;47.814;11.134;2023-08-24T02:35:56;23.30;91.30
1812;DHT22;904;47.814;11.134;2023-08-24T02:38:25;23.20;91.20
1812;DHT22;904;47.814;11.134;2023-08-24T02:41:01;23.20;91.30
1812;DHT22;904;47.814;11.134;2023-08-24T02:43:28;23.20;91.30
1812;DHT22;904;47.814;11.134;2023-08-24T02:46:00;23.20;91.30
1812;DHT22;904;47.814;11.134;2023-08-24T02:48:29;23.10;91.10
1812;DHT22;904;47.814;11.134;2023-08-24T02:50:58;23.10;91.10
1812;DHT22;904;47.814;11.134;2023-08-24T02:53:25;23.10;91.40
1812;DHT22;904;47.814;11.134;2023-08-24T02:55:52;23.10;91.20
1812;DHT22;904;47.814;11.134;2023-08-24T02:58:25;23.00;91.80
1812;DHT22;904;47.814;11.134;2023-08-24T03:00:54;23.00;91.50
1812;DHT22;904;47.814;11.134;2023-08-24T03:03:22;22.90;91.80
1812;DHT22;904;47.814;11.134;2023-08-24T03:05:54;22.80;92.00
1812;DHT22;904;47.814;11.134;2023-08-24T03:08:23;22.80;92.30
1812;DHT22;904;47.814;11.134;2023-08-24T03:10:50;22.80;92.40
1812;DHT22;904;47.814;11.134;2023-08-24T03:13:17;22.80;92.20
1812;DHT22;904;47.814;11.134;2023-08-24T03:15:48;22.80;92.00
1812;DHT22;904;47.814;11.134;2023-08-24T03:18:16;22.80;92.00
1812;DHT22;904;47.814;11.134;2023-08-24T03:20:44;22.70;92.00
1812;DHT22;904;47.814;11.134;2023-08-24T03:23:16;22.70;92.10
1812;DHT22;904;47.814;11.134;2023-08-24T03:25:45;22.70;92.20
1812;DHT22;904;47.814;11.134;2023-08-24T03:28:12;22.80;92.30
1812;DHT22;904;47.814;11.134;2023-08-24T03:30:47;22.80;92.20
1812;DHT22;904;47.814;11.134;2023-08-24T03:33:14;22.80;92.10
1812;DHT22;904;47.814;11.134;2023-08-24T03:35:42;22.80;92.00
1812;DHT22;904;47.814;11.134;2023-08-24T03:38:09;22.70;91.90
1812;DHT22;904;47.814;11.134;2023-08-24T03:40:38;22.70;91.50
1812;DHT22;904;47.814;11.134;2023-08-24T03:43:06;22.60;91.50
1812;DHT22;904;47.814;11.134;2023-08-24T03:45:33;22.60;91.70
1812;DHT22;904;47.814;11.134;2023-08-24T03:48:02;22.60;91.60
1812;DHT22;904;47.814;11.134;2023-08-24T03:50:29;22.50;91.60
1812;DHT22;904;47.814;11.134;2023-08-24T03:52:56;22.50;91.80
1812;DHT22;904;47.814;11.134;2023-08-24T03:55:25;22.50;92.10
1812;DHT22;904;47.814;11.134;2023-08-24T03:57:52;22.50;92.20
1812;DHT22;904;47.814;11.134;2023-08-24T04:00:21;22.50;91.80
1812;DHT22;904;47.814;11.134;2023-08-24T04:02:49;22.40;91.60
1812;DHT22;904;47.814;11.134;2023-08-24T04:05:16;22.40;91.70
1812;DHT22;904;47.814;11.134;2023-08-24T04:07:43;22.40;91.60
1812;DHT22;904;47.814;11.134;2023-08-24T04:10:13;22.40;91.40
1812;DHT22;904;47.814;11.134;2023-08-24T04:12:40;22.30;91.40
1812;DHT22;904;47.814;11.134;2023-08-24T04:15:10;22.30;91.60
1812;DHT22;904;47.814;11.134;2023-08-24T04:17:39;22.20;91.80
1812;DHT22;904;47.814;11.134;2023-08-24T04:20:07;22.20;91.70
1812;DHT22;904;47.814;11.134;2023-08-24T04:22:34;22.20;91.00
1812;DHT22;904;47.814;11.134;2023-08-24T04:25:05;22.20;91.10
1812;DHT22;904;47.814;11.134;2023-08-24T04:27:33;22.10;91.40
1812;DHT22;904;47.814;11.134;2023-08-24T04:30:00;22.10;91.40
1812;DHT22;904;47.814;11.134;2023-08-24T04:32:29;22.10;91.40
1812;DHT22;904;47.814;11.134;2023-08-24T04:34:57;22.10;91.70
1812;DHT22;904;47.814;11.134;2023-08-24T04:37:24;22.10;92.00
1812;DHT22;904;47.814;11.134;2023-08-24T04:39:51;22.10;91.70
1812;DHT22;904;47.814;11.134;2023-08-24T04:42:18;22.10;91.70
1812;DHT22;904;47.814;11.134;2023-08-24T04:44:45;22.00;91.70
1812;DHT22;904;47.814;11.134;2023-08-24T04:47:12;22.00;91.80
1812;DHT22;904;47.814;11.134;2023-08-24T04:49:41;22.00;91.60
1812;DHT22;904;47.814;11.134;2023-08-24T04:52:10;22.00;91.60
1812;DHT22;904;47.814;11.134;2023-08-24T04:54:37;21.90;92.00
1812;DHT22;904;47.814;11.134;2023-08-24T04:57:05;21.80;92.30
1812;DHT22;904;47.814;11.134;2023-08-24T04:59:47;21.80;92.40
1812;DHT22;904;47.814;11.134;2023-08-24T05:02:16;21.80;92.60
1812;DHT22;904;47.814;11.134;2023-08-24T05:04:43;21.90;92.70
1812;DHT22;904;47.814;11.134;2023-08-24T05:07:23;21.90;92.50
1812;DHT22;904;47.814;11.134;2023-08-24T05:09:51;22.00;92.20
1812;DHT22;904;47.814;11.134;2023-08-24T05:12:20;22.00;91.90
1812;DHT22;904;47.814;11.134;2023-08-24T05:14:56;22.00;92.00
1812;DHT22;904;47.814;11.134;2023-08-24T05:18:26;22.00;92.40
1812;DHT22;904;47.814;11.134;2023-08-24T05:20:54;22.10;92.50
1812;DHT22;904;47.814;11.134;2023-08-24T05:23:21;22.10;92.40
1812;DHT22;904;47.814;11.134;2023-08-24T05:25:48;22.10;92.50
1812;DHT22;904;47.814;11.134;2023-08-24T05:28:20;22.10;92.40
1812;DHT22;904;47.814;11.134;2023-08-24T05:30:47;22.10;92.50
1812;DHT22;904;47.814;11.134;2023-08-24T05:33:14;22.20;92.70
1812;DHT22;904;47.814;11.134;2023-08-24T05:35:43;22.20;92.90
1812;DHT22;904;47.814;11.134;2023-08-24T05:38:10;22.30;93.00
1812;DHT22;904;47.814;11.134;2023-08-24T05:40:40;22.30;93.30
1812;DHT22;904;47.814;11.134;2023-08-24T05:43:08;22.30;93.00
1812;DHT22;904;47.814;11.134;2023-08-24T05:45:35;22.40;93.10
1812;DHT22;904;47.814;11.134;2023-08-24T05:48:02;22.40;93.10
1812;DHT22;904;47.814;11.134;2023-08-24T05:50:29;22.40;93.00
1812;DHT22;904;47.814;11.134;2023-08-24T05:52:58;22.50;93.10
1812;DHT22;904;47.814;11.134;2023-08-24T05:55:25;22.50;93.40
1812;DHT22;904;47.814;11.134;2023-08-24T05:57:53;22.60;93.50
1812;DHT22;904;47.814;11.134;2023-08-24T06:00:20;22.70;93.30
1812;DHT22;904;47.814;11.134;2023-08-24T06:02:48;22.70;93.30
1812;DHT22;904;47.814;11.134;2023-08-24T06:05:15;22.80;93.40
1812;DHT22;904;47.814;11.134;2023-08-24T06:07:46;22.80;93.00
1812;DHT22;904;47.814;11.134;2023-08-24T06:10:14;22.90;93.20
1812;DHT22;904;47.814;11.134;2023-08-24T06:12:42;23.00;93.30
1812;DHT22;904;47.814;11.134;2023-08-24T06:15:09;23.10;93.50
1812;DHT22;904;47.814;11.134;2023-08-24T06:17:44;23.10;93.10
1812;DHT22;904;47.814;11.134;2023-08-24T06:20:13;23.20;92.90
1812;DHT22;904;47.814;11.134;2023-08-24T06:22:40;23.30;92.90
1812;DHT22;904;47.814;11.134;2023-08-24T06:25:08;23.30;92.90
1812;DHT22;904;47.814;11.134;2023-08-24T06:27:37;23.40;92.90
1812;DHT22;904;47.814;11.134;2023-08-24T06:30:04;23.50;93.10
1812;DHT22;904;47.814;11.134;2023-08-24T06:32:31;23.60;93.30
1812;DHT22;904;47.814;11.134;2023-08-24T06:34:58;23.70;93.40
1812;DHT22;904;47.814;11.134;2023-08-24T06:37:26;23.80;93.20
1812;DHT22;904;47.814;11.134;2023-08-24T06:39:53;23.90;92.80
1812;DHT22;904;47.814;11.134;2023-08-24T06:42:19;24.10;92.50
1812;DHT22;904;47.814;11.134;2023-08-24T06:44:48;24.20;92.10
1812;DHT22;904;47.814;11.134;2023-08-24T06:47:16;24.30;91.50
1812;DHT22;904;47.814;11.134;2023-08-24T06:49:43;24.40;91.20
1812;DHT22;904;47.814;11.134;2023-08-24T06:52:10;24.50;90.60
1812;DHT22;904;47.814;11.134;2023-08-24T06:54:37;24.50;90.20
1812;DHT22;904;47.814;11.134;2023-08-24T06:57:04;24.60;89.90
1812;DHT22;904;47.814;11.134;2023-08-24T06:59:32;24.70;90.20
1812;DHT22;904;47.814;11.134;2023-08-24T07:02:01;24.80;90.30
1812;DHT22;904;47.814;11.134;2023-08-24T07:04:29;24.80;89.20
1812;DHT22;904;47.814;11.134;2023-08-24T07:06:57;24.90;89.20
1812;DHT22;904;47.814;11.134;2023-08-24T07:09:29;25.10;89.10
1812;DHT22;904;47.814;11.134;2023-08-24T07:11:56;25.20;87.70
1812;DHT22;904;47.814;11.134;2023-08-24T07:14:23;25.30;88.20
1812;DHT22;904;47.814;11.134;2023-08-24T07:16:50;25.40;87.90
1812;DHT22;904;47.814;11.134;2023-08-24T07:19:18;25.60;86.40
1812;DHT22;904;47.814;11.134;2023-08-24T07:21:46;25.70;86.30
1812;DHT22;904;47.814;11.134;2023-08-24T07:24:13;25.80;86.00
1812;DHT22;904;47.814;11.134;2023-08-24T07:26:40;25.90;85.90
1812;DHT22;904;47.814;11.134;2023-08-24T07:29:14;26.00;85.60
1812;DHT22;904;47.814;11.134;2023-08-24T07:31:41;26.20;85.30
1812;DHT22;904;47.814;11.134;2023-08-24T07:34:08;26.40;85.30
1812;DHT22;904;47.814;11.134;2023-08-24T07:36:36;26.50;85.40
1812;DHT22;904;47.814;11.134;2023-08-24T07:39:04;26.70;84.70
1812;DHT22;904;47.814;11.134;2023-08-24T07:41:31;26.80;84.50
1812;DHT22;904;47.814;11.134;2023-08-24T07:43:58;27.10;85.00
1812;DHT22;904;47.814;11.134;2023-08-24T07:46:25;27.30;84.00
1812;DHT22;904;47.814;11.134;2023-08-24T07:48:52;27.50;82.00
1812;DHT22;904;47.814;11.134;2023-08-24T07:51:19;27.80;81.30
1812;DHT22;904;47.814;11.134;2023-08-24T07:53:48;28.00;80.60
1812;DHT22;904;47.814;11.134;2023-08-24T07:56:17;28.40;80.80
1812;DHT22;904;47.814;11.134;2023-08-24T07:58:44;28.60;79.10
1812;DHT22;904;47.814;11.134;2023-08-24T08:01:12;29.00;77.80
1812;DHT22;904;47.814;11.134;2023-08-24T08:03:39;29.20;75.80
1812;DHT22;904;47.814;11.134;2023-08-24T08:06:06;29.50;75.20
1812;DHT22;904;47.814;11.134;2023-08-24T08:08:33;29.70;73.50
1812;DHT22;904;47.814;11.134;2023-08-24T08:11:02;29.80;71.80
1812;DHT22;904;47.814;11.134;2023-08-24T08:13:29;30.10;71.90
1812;DHT22;904;47.814;11.134;2023-08-24T08:16:00;30.40;69.50
1812;DHT22;904;47.814;11.134;2023-08-24T08:18:28;30.80;69.50
1812;DHT22;904;47.814;11.134;2023-08-24T08:20:55;31.10;68.30
1812;DHT22;904;47.814;11.134;2023-08-24T08:23:22;31.40;67.10
1812;DHT22;904;47.814;11.134;2023-08-24T08:25:50;31.60;64.70
1812;DHT22;904;47.814;11.134;2023-08-24T08:28:18;31.90;65.30
1812;DHT22;904;47.814;11.134;2023-08-24T08:30:48;32.20;63.90
1812;DHT22;904;47.814;11.134;2023-08-24T08:33:15;32.40;61.80
1812;DHT22;904;47.814;11.134;2023-08-24T08:35:42;32.60;61.70
1812;DHT22;904;47.814;11.134;2023-08-24T08:38:09;32.80;61.00
1812;DHT22;904;47.814;11.134;2023-08-24T08:40:37;33.10;59.70
1812;DHT22;904;47.814;11.134;2023-08-24T08:43:05;33.30;58.60
1812;DHT22;904;47.814;11.134;2023-08-24T08:45:34;33.60;57.20
1812;DHT22;904;47.814;11.134;2023-08-24T08:48:02;33.80;55.20
1812;DHT22;904;47.814;11.134;2023-08-24T08:50:35;34.00;54.20
1812;DHT22;904;47.814;11.134;2023-08-24T08:53:03;34.20;54.60
1812;DHT22;904;47.814;11.134;2023-08-24T08:55:31;34.30;53.20
1812;DHT22;904;47.814;11.134;2023-08-24T08:57:58;34.40;51.90
1812;DHT22;904;47.814;11.134;2023-08-24T09:00:27;34.50;53.40
1812;DHT22;904;47.814;11.134;2023-08-24T09:02:57;34.70;53.60
1812;DHT22;904;47.814;11.134;2023-08-24T09:05:24;34.90;53.10
1812;DHT22;904;47.814;11.134;2023-08-24T09:07:53;35.20;52.40
1812;DHT22;904;47.814;11.134;2023-08-24T09:10:21;35.30;50.40
1812;DHT22;904;47.814;11.134;2023-08-24T09:12:48;35.50;49.70
1812;DHT22;904;47.814;11.134;2023-08-24T09:15:24;35.70;49.50
1812;DHT22;904;47.814;11.134;2023-08-24T09:17:52;35.90;48.60
1812;DHT22;904;47.814;11.134;2023-08-24T09:20:21;36.10;49.40
1812;DHT22;904;47.814;11.134;2023-08-24T09:22:48;36.20;47.90
1812;DHT22;904;47.814;11.134;2023-08-24T09:25:16;36.40;48.80
1812;DHT22;904;47.814;11.134;2023-08-24T09:27:43;36.50;48.00
1812;DHT22;904;47.814;11.134;2023-08-24T09:30:11;36.70;47.80
1812;DHT22;904;47.814;11.134;2023-08-24T09:32:38;36.80;48.60
1812;DHT22;904;47.814;11.134;2023-08-24T09:35:08;36.90;46.60
1812;DHT22;904;47.814;11.134;2023-08-24T09:37:37;37.00;46.70
1812;DHT22;904;47.814;11.134;2023-08-24T09:40:07;37.10;46.80
1812;DHT22;904;47.814;11.134;2023-08-24T09:42:37;37.20;46.00
1812;DHT22;904;47.814;11.134;2023-08-24T09:45:07;37.30;45.70
1812;DHT22;904;47.814;11.134;2023-08-24T09:47:36;37.40;46.00
1812;DHT22;904;47.814;11.134;2023-08-24T09:50:05;37.50;44.20
1812;DHT22;904;47.814;11.134;2023-08-24T09:52:33;37.60;44.30
1812;DHT22;904;47.814;11.134;2023-08-24T09:55:05;37.80;43.30
1812;DHT22;904;47.814;11.134;2023-08-24T09:57:37;38.00;42.30
1812;DHT22;904;47.814;11.134;2023-08-24T10:00:06;38.10;42.60
1812;DHT22;904;47.814;11.134;2023-08-24T10:02:36;38.30;42.20
1812;DHT22;904;47.814;11.134;2023-08-24T10:05:19;38.40;41.60
1812;DHT22;904;47.814;11.134;2023-08-24T10:07:51;38.50;41.30
1812;DHT22;904;47.814;11.134;2023-08-24T10:10:20;38.70;40.90
1812;DHT22;904;47.814;11.134;2023-08-24T10:12:51;38.80;40.90
1812;DHT22;904;47.814;11.134;2023-08-24T10:15:24;38.90;39.60
1812;DHT22;904;47.814;11.134;2023-08-24T10:17:53;39.00;39.10
1812;DHT22;904;47.814;11.134;2023-08-24T10:20:21;39.00;38.80
1812;DHT22;904;47.814;11.134;2023-08-24T10:22:50;39.10;37.40
1812;DHT22;904;47.814;11.134;2023-08-24T10:25:21;39.00;36.10
1812;DHT22;904;47.814;11.134;2023-08-24T10:27:50;38.90;36.30
1812;DHT22;904;47.814;11.134;2023-08-24T10:30:20;38.90;36.90
1812;DHT22;904;47.814;11.134;2023-08-24T10:32:50;39.00;36.90
1812;DHT22;904;47.814;11.134;2023-08-24T10:35:23;39.00;36.70
1812;DHT22;904;47.814;11.134;2023-08-24T10:37:52;39.00;36.90
1812;DHT22;904;47.814;11.134;2023-08-24T10:40:32;39.10;37.40
1812;DHT22;904;47.814;11.134;2023-08-24T10:43:03;39.20;36.80
1812;DHT22;904;47.814;11.134;2023-08-24T10:45:55;39.20;36.00
1812;DHT22;904;47.814;11.134;2023-08-24T10:48:23;39.20;36.00
1812;DHT22;904;47.814;11.134;2023-08-24T10:51:17;39.10;36.20
1812;DHT22;904;47.814;11.134;2023-08-24T10:53:47;39.10;34.90
1812;DHT22;904;47.814;11.134;2023-08-24T10:56:17;39.10;35.40
1812;DHT22;904;47.814;11.134;2023-08-24T10:58:47;39.10;33.90
1812;DHT22;904;47.814;11.134;2023-08-24T11:01:33;38.90;34.20
1812;DHT22;904;47.814;11.134;2023-08-24T11:04:00;38.90;33.70
1812;DHT22;904;47.814;11.134;2023-08-24T11:06:28;38.90;34.30
1812;DHT22;904;47.814;11.134;2023-08-24T11:09:05;38.80;32.90
1812;DHT22;904;47.814;11.134;2023-08-24T11:11:36;38.80;34.00
1812;DHT22;904;47.814;11.134;2023-08-24T11:14:18;38.80;34.80
1812;DHT22;904;47.814;11.134;2023-08-24T11:16:48;38.90;35.50
1812;DHT22;904;47.814;11.134;2023-08-24T11:19:16;38.90;35.70
1812;DHT22;904;47.814;11.134;2023-08-24T11:21:45;39.00;35.20
1812;DHT22;904;47.814;11.134;2023-08-24T11:24:13;38.90;34.70
1812;DHT22;904;47.814;11.134;2023-08-24T11:26:42;38.90;34.40
1812;DHT22;904;47.814;11.134;2023-08-24T11:29:09;38.80;34.80
1812;DHT22;904;47.814;11.134;2023-08-24T11:31:37;38.90;35.00
1812;DHT22;904;47.814;11.134;2023-08-24T11:34:04;38.90;33.40
1812;DHT22;904;47.814;11.134;2023-08-24T11:36:41;38.70;32.90
1812;DHT22;904;47.814;11.134;2023-08-24T11:39:14;38.70;32.40
1812;DHT22;904;47.814;11.134;2023-08-24T11:41:43;38.50;32.30
1812;DHT22;904;47.814;11.134;2023-08-24T11:44:11;38.50;32.90
1812;DHT22;904;47.814;11.134;2023-08-24T11:46:38;38.50;33.50
1812;DHT22;904;47.814;11.134;2023-08-24T11:49:06;38.60;35.00
1812;DHT22;904;47.814;11.134;2023-08-24T11:51:33;38.70;35.90
1812;DHT22;904;47.814;11.134;2023-08-24T11:54:01;38.70;37.00
1812;DHT22;904;47.814;11.134;2023-08-24T11:56:28;38.80;36.50
1812;DHT22;904;47.814;11.134;2023-08-24T11:59:13;38.70;31.50
1812;DHT22;904;47.814;11.134;2023-08-24T12:01:41;38.70;32.30
1812;DHT22;904;47.814;11.134;2023-08-24T12:04:09;38.70;32.10
1812;DHT22;904;47.814;11.134;2023-08-24T12:06:36;38.70;33.10
1812;DHT22;904;47.814;11.134;2023-08-24T12:09:05;38.80;34.30
1812;DHT22;904;47.814;11.134;2023-08-24T12:11:35;38.90;35.50
1812;DHT22;904;47.814;11.134;2023-08-24T12:14:03;39.00;36.80
1812;DHT22;904;47.814;11.134;2023-08-24T12:16:37;39.00;37.20
1812;DHT22;904;47.814;11.134;2023-08-24T12:19:07;39.10;37.40
1812;DHT22;904;47.814;11.134;2023-08-24T12:21:34;39.20;37.10
1812;DHT22;904;47.814;11.134;2023-08-24T12:24:02;39.20;37.20
1812;DHT22;904;47.814;11.134;2023-08-24T12:26:31;39.20;37.10
1812;DHT22;904;47.814;11.134;2023-08-24T12:29:03;39.20;36.90
1812;DHT22;904;47.814;11.134;2023-08-24T12:31:31;39.20;35.90
1812;DHT22;904;47.814;11.134;2023-08-24T12:34:01;39.20;36.30
1812;DHT22;904;47.814;11.134;2023-08-24T12:36:29;39.20;36.60
1812;DHT22;904;47.814;11.134;2023-08-24T12:38:56;39.10;36.50
1812;DHT22;904;47.814;11.134;2023-08-24T12:41:22;39.10;35.50
1812;DHT22;904;47.814;11.134;2023-08-24T12:43:50;39.00;35.70
1812;DHT22;904;47.814;11.134;2023-08-24T12:46:17;39.00;35.40
1812;DHT22;904;47.814;11.134;2023-08-24T12:48:44;39.00;36.20
1812;DHT22;904;47.814;11.134;2023-08-24T12:51:13;38.90;36.30
1812;DHT22;904;47.814;11.134;2023-08-24T12:53:40;38.90;36.70
1812;DHT22;904;47.814;11.134;2023-08-24T12:56:07;38.80;35.50
1812;DHT22;904;47.814;11.134;2023-08-24T12:58:34;38.70;35.90
1812;DHT22;904;47.814;11.134;2023-08-24T13:01:01;38.70;36.80
1812;DHT22;904;47.814;11.134;2023-08-24T13:03:28;38.80;37.20
1812;DHT22;904;47.814;11.134;2023-08-24T13:05:55;38.80;37.20
1812;DHT22;904;47.814;11.134;2023-08-24T13:08:23;38.80;37.30
1812;DHT22;904;47.814;11.134;2023-08-24T13:10:52;38.80;36.80
1812;DHT22;904;47.814;11.134;2023-08-24T13:13:18;38.70;36.40
1812;DHT22;904;47.814;11.134;2023-08-24T13:15:49;38.70;35.40
1812;DHT22;904;47.814;11.134;2023-08-24T13:18:16;38.60;36.10
1812;DHT22;904;47.814;11.134;2023-08-24T13:20:43;38.60;36.10
1812;DHT22;904;47.814;11.134;2023-08-24T13:23:10;38.50;36.00
1812;DHT22;904;47.814;11.134;2023-08-24T13:25:39;38.50;36.10
1812;DHT22;904;47.814;11.134;2023-08-24T13:28:07;38.40;36.00
1812;DHT22;904;47.814;11.134;2023-08-24T13:30:34;38.40;35.40
1812;DHT22;904;47.814;11.134;2023-08-24T13:33:01;38.30;35.10
1812;DHT22;904;47.814;11.134;2023-08-24T13:35:28;38.20;34.80
1812;DHT22;904;47.814;11.134;2023-08-24T13:37:55;38.10;34.40
1812;DHT22;904;47.814;11.134;2023-08-24T13:40:21;38.00;34.30
1812;DHT22;904;47.814;11.134;2023-08-24T13:42:50;37.90;33.10
1812;DHT22;904;47.814;11.134;2023-08-24T13:45:17;37.80;34.00
1812;DHT22;904;47.814;11.134;2023-08-24T13:47:44;37.70;34.60
1812;DHT22;904;47.814;11.134;2023-08-24T13:50:11;37.60;34.60
1812;DHT22;904;47.814;11.134;2023-08-24T13:52:38;37.60;33.90
1812;DHT22;904;47.814;11.134;2023-08-24T13:55:06;37.50;34.10
1812;DHT22;904;47.814;11.134;2023-08-24T13:57:33;37.40;34.10
1812;DHT22;904;47.814;11.134;2023-08-24T14:00:01;37.40;33.90
1812;DHT22;904;47.814;11.134;2023-08-24T14:02:30;37.40;34.10
1812;DHT22;904;47.814;11.134;2023-08-24T14:04:56;37.30;34.50
1812;DHT22;904;47.814;11.134;2023-08-24T14:07:24;37.30;35.20
1812;DHT22;904;47.814;11.134;2023-08-24T14:09:51;37.30;35.60
1812;DHT22;904;47.814;11.134;2023-08-24T14:12:18;37.30;35.80
1812;DHT22;904;47.814;11.134;2023-08-24T14:14:44;37.20;35.00
1812;DHT22;904;47.814;11.134;2023-08-24T14:17:13;37.20;35.20
1812;DHT22;904;47.814;11.134;2023-08-24T14:19:40;37.10;35.10
1812;DHT22;904;47.814;11.134;2023-08-24T14:22:07;37.10;35.40
1812;DHT22;904;47.814;11.134;2023-08-24T14:24:35;37.00;35.60
1812;DHT22;904;47.814;11.134;2023-08-24T14:27:02;37.00;35.50
1812;DHT22;904;47.814;11.134;2023-08-24T14:29:29;36.90;35.40
1812;DHT22;904;47.814;11.134;2023-08-24T14:31:56;36.80;35.70
1812;DHT22;904;47.814;11.134;2023-08-24T14:34:24;36.70;36.00
1812;DHT22;904;47.814;11.134;2023-08-24T14:36:51;36.60;37.20
1812;DHT22;904;47.814;11.134;2023-08-24T14:39:19;36.60;37.20
1812;DHT22;904;47.814;11.134;2023-08-24T14:41:46;36.60;36.50
1812;DHT22;904;47.814;11.134;2023-08-24T14:44:13;36.60;36.40
1812;DHT22;904;47.814;11.134;2023-08-24T14:46:40;36.60;35.50
1812;DHT22;904;47.814;11.134;2023-08-24T14:49:07;36.50;35.00
1812;DHT22;904;47.814;11.134;2023-08-24T14:51:36;36.50;35.10
1812;DHT22;904;47.814;11.134;2023-08-24T14:54:03;36.40;34.20
1812;DHT22;904;47.814;11.134;2023-08-24T14:56:30;36.30;35.20
1812;DHT22;904;47.814;11.134;2023-08-24T14:58:57;36.30;35.70
1812;DHT22;904;47.814;11.134;2023-08-24T15:01:24;36.20;35.30
1812;DHT22;904;47.814;11.134;2023-08-24T15:03:51;36.20;35.70
1812;DHT22;904;47.814;11.134;2023-08-24T15:06:18;36.10;34.90
1812;DHT22;904;47.814;11.134;2023-08-24T15:08:46;36.10;35.10
1812;DHT22;904;47.814;11.134;2023-08-24T15:11:14;36.00;35.20
1812;DHT22;904;47.814;11.134;2023-08-24T15:13:42;35.90;35.90
1812;DHT22;904;47.814;11.134;2023-08-24T15:16:09;35.80;36.40
1812;DHT22;904;47.814;11.134;2023-08-24T15:18:36;35.70;35.10
1812;DHT22;904;47.814;11.134;2023-08-24T15:21:03;35.70;34.70
1812;DHT22;904;47.814;11.134;2023-08-24T15:23:31;35.60;35.00
1812;DHT22;904;47.814;11.134;2023-08-24T15:26:01;35.50;34.90
1812;DHT22;904;47.814;11.134;2023-08-24T15:28:36;35.40;33.70
1812;DHT22;904;47.814;11.134;2023-08-24T15:31:03;35.30;31.80
1812;DHT22;904;47.814;11.134;2023-08-24T15:33:30;35.20;32.30
1812;DHT22;904;47.814;11.134;2023-08-24T15:35:58;35.20;32.40
1812;DHT22;904;47.814;11.134;2023-08-24T15:38:27;35.20;33.30
1812;DHT22;904;47.814;11.134;2023-08-24T15:40:56;35.10;33.20
1812;DHT22;904;47.814;11.134;2023-08-24T15:43:24;35.00;33.30
1812;DHT22;904;47.814;11.134;2023-08-24T15:45:51;35.00;33.10
1812;DHT22;904;47.814;11.134;2023-08-24T15:48:18;34.90;32.70
1812;DHT22;904;47.814;11.134;2023-08-24T15:50:45;34.80;32.10
1812;DHT22;904;47.814;11.134;2023-08-24T15:53:12;34.80;31.70
1812;DHT22;904;47.814;11.134;2023-08-24T15:55:39;34.70;32.10
1812;DHT22;904;47.814;11.134;2023-08-24T15:58:06;34.70;32.50
1812;DHT22;904;47.814;11.134;2023-08-24T16:00:34;34.60;30.20
1812;DHT22;904;47.814;11.134;2023-08-24T16:03:02;34.50;30.90
1812;DHT22;904;47.814;11.134;2023-08-24T16:05:29;34.50;31.50
1812;DHT22;904;47.814;11.134;2023-08-24T16:07:59;34.50;31.50
1812;DHT22;904;47.814;11.134;2023-08-24T16:10:26;34.40;30.90
1812;DHT22;904;47.814;11.134;2023-08-24T16:12:53;34.40;31.40